Time;durP1;ratioP1;P1;durP2;ratioP2;P2;SDS_P1;SDS_P2;PMS_P1;PMS_P2;Temp;Humidity;BMP_temperature;BMP_pressure;BME280_temperature;BME280_humidity;BME280_pressure;Samples;Min_cycle;Max_cycle;Signal;HPM_P1;HPM_P2
2023/08/31 00:01:35;;;;;;;;;;;21.30;70.00;;;;;;5049305;28;1331;-68
2023/08/31 00:04:01;;;;;;;;;;;21.30;70.00;;;;;;5053739;28;1394;-68
2023/08/31 00:06:26;;;;;;;;;;;21.30;70.00;;;;;;5053809;28;1335;-68
2023/08/31 00:08:52;;;;;;;;;;;21.30;70.00;;;;;;5052656;28;1774;-68
2023/08/31 00:11:17;;;;;;;;;;;21.30;70.10;;;;;;5052518;28;1270;-68
2023/08/31 00:13:43;;;;;;;;;;;21.30;70.10;;;;;;5053243;28;1413;-68
2023/08/31 00:16:09;;;;;;;;;;;21.30;70.10;;;;;;5053113;28;1938;-68
2023/08/31 00:18:35;;;;;;;;;;;21.30;70.10;;;;;;5052627;28;1307;-68
2023/08/31 00:21:01;;;;;;;;;;;21.30;70.10;;;;;;5053100;28;1365;-68
2023/08/31 00:23:28;;;;;;;;;;;21.30;70.10;;;;;;5052384;28;820;-68
2023/08/31 00:25:53;;;;;;;;;;;21.30;70.10;;;;;;5045924;28;916;-68
2023/08/31 00:28:19;;;;;;;;;;;21.30;70.10;;;;;;5051964;28;885;-68
2023/08/31 00:30:45;;;;;;;;;;;21.30;70.10;;;;;;5052795;28;1278;-68
2023/08/31 00:33:13;;;;;;;;;;;21.30;70.10;;;;;;5053131;28;821;-68
2023/08/31 00:35:46;;;;;;;;;;;21.30;70.10;;;;;;5045710;28;1929;-68
2023/08/31 00:38:12;;;;;;;;;;;21.30;70.10;;;;;;5052246;28;875;-68
2023/08/31 00:40:46;;;;;;;;;;;21.30;70.20;;;;;;5052568;28;1354;-68
2023/08/31 00:43:14;;;;;;;;;;;21.30;70.10;;;;;;5053089;28;855;-68
2023/08/31 00:45:40;;;;;;;;;;;21.30;70.10;;;;;;5045349;28;1195;-68
2023/08/31 00:48:06;;;;;;;;;;;21.30;70.10;;;;;;5052152;28;812;-68
2023/08/31 00:50:31;;;;;;;;;;;21.30;70.20;;;;;;5052057;28;1337;-68
2023/08/31 00:52:57;;;;;;;;;;;21.30;70.20;;;;;;5042763;28;946;-68
2023/08/31 00:55:23;;;;;;;;;;;21.30;70.20;;;;;;5052666;28;902;-68
2023/08/31 00:57:48;;;;;;;;;;;21.30;70.20;;;;;;5051698;28;1946;-68
2023/08/31 01:00:14;;;;;;;;;;;21.30;70.20;;;;;;5052251;28;1472;-67
2023/08/31 01:02:58;;;;;;;;;;;21.30;70.20;;;;;;5046616;28;907;-68
2023/08/31 01:05:33;;;;;;;;;;;21.30;70.20;;;;;;5052689;28;883;-68
2023/08/31 01:08:02;;;;;;;;;;;21.30;70.20;;;;;;5051588;28;1112;-68
2023/08/31 01:10:27;;;;;;;;;;;21.30;70.20;;;;;;5051613;28;1373;-68
2023/08/31 01:13:03;;;;;;;;;;;21.30;70.20;;;;;;5051763;28;1402;-69
2023/08/31 01:15:31;;;;;;;;;;;21.30;70.20;;;;;;5046204;28;1644;-68
2023/08/31 01:17:56;;;;;;;;;;;21.30;70.30;;;;;;5049370;28;1914;-69
2023/08/31 01:20:26;;;;;;;;;;;21.30;70.20;;;;;;5050126;28;1416;-68
2023/08/31 01:23:10;;;;;;;;;;;21.30;70.30;;;;;;5051274;28;1322;-68
2023/08/31 01:25:36;;;;;;;;;;;21.30;70.20;;;;;;5051761;28;1378;-67
2023/08/31 01:28:03;;;;;;;;;;;21.30;70.30;;;;;;5051235;28;1235;-67
2023/08/31 01:30:32;;;;;;;;;;;21.30;70.30;;;;;;5047368;28;1479;-68
2023/08/31 01:32:57;;;;;;;;;;;21.30;70.30;;;;;;5051934;28;822;-68
2023/08/31 01:35:24;;;;;;;;;;;21.30;70.30;;;;;;5052126;28;862;-68
2023/08/31 01:37:59;;;;;;;;;;;21.30;70.30;;;;;;5044742;28;2024;-67
2023/08/31 01:40:32;;;;;;;;;;;21.30;70.30;;;;;;5045362;28;1258;-68
2023/08/31 01:42:57;;;;;;;;;;;21.30;70.30;;;;;;5046013;28;870;-67
2023/08/31 01:45:23;;;;;;;;;;;21.30;70.30;;;;;;5047527;28;1425;-68
2023/08/31 01:47:48;;;;;;;;;;;21.30;70.30;;;;;;5043286;28;1115;-68
2023/08/31 01:50:14;;;;;;;;;;;21.30;71.10;;;;;;5046059;28;1710;-67
2023/08/31 01:52:39;;;;;;;;;;;21.30;70.30;;;;;;5051672;28;887;-68
2023/08/31 01:55:05;;;;;;;;;;;21.30;70.30;;;;;;5052166;28;837;-67
2023/08/31 01:57:31;;;;;;;;;;;21.30;70.40;;;;;;5051687;28;1902;-68
2023/08/31 01:59:57;;;;;;;;;;;21.30;70.40;;;;;;5050749;28;1397;-67
2023/08/31 02:02:22;;;;;;;;;;;21.30;70.40;;;;;;5051279;28;923;-68
2023/08/31 02:04:48;;;;;;;;;;;21.30;70.40;;;;;;5051475;28;979;-68
2023/08/31 02:07:13;;;;;;;;;;;21.30;70.40;;;;;;5051499;28;1352;-68
2023/08/31 02:09:39;;;;;;;;;;;21.30;70.40;;;;;;5050605;28;1193;-68
2023/08/31 02:12:05;;;;;;;;;;;21.30;70.40;;;;;;5051206;28;879;-68
2023/08/31 02:14:30;;;;;;;;;;;21.30;70.50;;;;;;5051449;28;808;-68
2023/08/31 02:16:56;;;;;;;;;;;21.30;70.40;;;;;;5050673;28;1981;-68
2023/08/31 02:19:21;;;;;;;;;;;21.30;70.40;;;;;;5050160;28;1296;-68
2023/08/31 02:21:47;;;;;;;;;;;21.30;70.40;;;;;;5050949;28;813;-69
2023/08/31 02:24:12;;;;;;;;;;;21.30;70.40;;;;;;5044964;28;861;-68
2023/08/31 02:26:38;;;;;;;;;;;21.30;70.40;;;;;;5051129;28;860;-69
2023/08/31 02:29:03;;;;;;;;;;;21.30;70.40;;;;;;5050216;28;1310;-69
2023/08/31 02:31:29;;;;;;;;;;;21.30;70.40;;;;;;5050872;28;1261;-68
2023/08/31 02:33:54;;;;;;;;;;;21.30;70.50;;;;;;5051075;28;840;-68
2023/08/31 02:36:23;;;;;;;;;;;21.30;70.40;;;;;;5050545;28;1965;-68
2023/08/31 02:38:50;;;;;;;;;;;21.30;70.50;;;;;;5048733;28;950;-68
2023/08/31 02:41:16;;;;;;;;;;;21.30;70.50;;;;;;5051696;28;1268;-68
2023/08/31 02:43:42;;;;;;;;;;;21.30;70.50;;;;;;5039311;28;876;-69
2023/08/31 02:46:07;;;;;;;;;;;21.30;70.50;;;;;;5043379;28;818;-69
2023/08/31 02:48:33;;;;;;;;;;;21.30;70.50;;;;;;5050505;28;926;-69
2023/08/31 02:51:00;;;;;;;;;;;21.30;70.50;;;;;;5051506;28;1275;-69
2023/08/31 02:53:26;;;;;;;;;;;21.30;70.50;;;;;;5049641;28;847;-69
2023/08/31 02:55:52;;;;;;;;;;;21.30;70.50;;;;;;5052019;28;1951;-69
2023/08/31 02:58:17;;;;;;;;;;;21.30;70.50;;;;;;5051246;28;1005;-69
2023/08/31 03:00:45;;;;;;;;;;;21.30;70.50;;;;;;5051462;28;1254;-69
2023/08/31 03:03:11;;;;;;;;;;;21.30;70.50;;;;;;5051813;28;906;-69
2023/08/31 03:05:36;;;;;;;;;;;21.30;70.50;;;;;;5050224;28;903;-69
2023/08/31 03:08:02;;;;;;;;;;;21.30;70.50;;;;;;5050776;28;899;-69
2023/08/31 03:10:28;;;;;;;;;;;21.30;70.50;;;;;;5051048;28;1334;-69
2023/08/31 03:12:53;;;;;;;;;;;21.30;70.60;;;;;;5050705;28;1005;-68
2023/08/31 03:15:19;;;;;;;;;;;21.30;70.50;;;;;;5050387;28;847;-68
2023/08/31 03:17:44;;;;;;;;;;;21.30;70.50;;;;;;5050263;28;1995;-69
2023/08/31 03:20:10;;;;;;;;;;;21.30;70.50;;;;;;5050044;28;1409;-67
2023/08/31 03:22:36;;;;;;;;;;;21.30;70.60;;;;;;5051295;28;831;-69
2023/08/31 03:25:01;;;;;;;;;;;21.30;70.60;;;;;;5049976;28;868;-67
2023/08/31 03:27:27;;;;;;;;;;;21.30;70.60;;;;;;5050056;28;858;-67
2023/08/31 03:29:52;;;;;;;;;;;21.30;70.60;;;;;;5047924;28;1359;-68
2023/08/31 03:32:18;;;;;;;;;;;21.30;70.60;;;;;;5050036;28;1034;-67
2023/08/31 03:34:44;;;;;;;;;;;21.30;70.60;;;;;;5048564;28;1162;-67
2023/08/31 03:37:10;;;;;;;;;;;21.30;70.60;;;;;;5050111;28;1909;-67
2023/08/31 03:39:35;;;;;;;;;;;21.30;70.60;;;;;;5047116;28;1378;-67
2023/08/31 03:42:00;;;;;;;;;;;21.30;70.60;;;;;;5050057;28;1163;-67
2023/08/31 03:44:26;;;;;;;;;;;21.30;70.60;;;;;;5050766;28;899;-68
2023/08/31 03:46:51;;;;;;;;;;;21.30;70.60;;;;;;5048839;28;1133;-68
2023/08/31 03:49:17;;;;;;;;;;;21.30;70.60;;;;;;5048998;28;1346;-68
2023/08/31 03:51:43;;;;;;;;;;;21.30;70.70;;;;;;5049929;28;871;-68
2023/08/31 03:54:08;;;;;;;;;;;21.30;70.60;;;;;;5049819;28;824;-67
2023/08/31 03:56:34;;;;;;;;;;;21.30;70.60;;;;;;5049740;28;1961;-67
2023/08/31 03:59:01;;;;;;;;;;;21.30;70.60;;;;;;5048760;28;1865;-67
2023/08/31 04:01:28;;;;;;;;;;;21.30;70.70;;;;;;5047802;28;1292;-67
2023/08/31 04:03:53;;;;;;;;;;;21.30;70.70;;;;;;5049593;28;856;-67
2023/08/31 04:06:19;;;;;;;;;;;21.30;70.70;;;;;;5049807;28;883;-67
2023/08/31 04:08:44;;;;;;;;;;;21.30;70.70;;;;;;5048945;28;916;-67
2023/08/31 04:11:09;;;;;;;;;;;21.30;70.70;;;;;;5049659;28;1774;-67
2023/08/31 04:13:35;;;;;;;;;;;21.30;70.70;;;;;;5049332;28;800;-66
2023/08/31 04:16:00;;;;;;;;;;;21.30;70.70;;;;;;5044642;28;1995;-66
2023/08/31 04:18:26;;;;;;;;;;;21.30;70.70;;;;;;5048264;28;1152;-66
2023/08/31 04:20:52;;;;;;;;;;;21.30;70.70;;;;;;5049526;28;1269;-67
2023/08/31 04:23:18;;;;;;;;;;;21.30;70.70;;;;;;5042225;28;1201;-67
2023/08/31 04:25:43;;;;;;;;;;;21.30;70.70;;;;;;5044462;28;856;-67
2023/08/31 04:28:09;;;;;;;;;;;21.30;70.70;;;;;;5041555;28;1349;-67
2023/08/31 04:30:34;;;;;;;;;;;21.30;70.70;;;;;;5037659;28;1824;-64
2023/08/31 04:33:00;;;;;;;;;;;21.30;70.70;;;;;;5048023;28;2024;-66
2023/08/31 04:35:25;;;;;;;;;;;21.30;70.70;;;;;;5048563;28;1157;-66
2023/08/31 04:37:51;;;;;;;;;;;21.30;70.70;;;;;;5047954;28;1910;-66
2023/08/31 04:40:16;;;;;;;;;;;21.30;70.70;;;;;;5048636;28;1284;-66
2023/08/31 04:42:42;;;;;;;;;;;21.30;70.70;;;;;;5052125;28;843;-66
2023/08/31 04:45:07;;;;;;;;;;;21.30;70.70;;;;;;5045868;28;792;-65
2023/08/31 04:47:33;;;;;;;;;;;21.30;70.70;;;;;;5052239;28;871;-66
2023/08/31 04:49:59;;;;;;;;;;;21.30;70.80;;;;;;5051579;28;1258;-66
2023/08/31 04:52:24;;;;;;;;;;;21.30;70.80;;;;;;5052061;28;840;-66
2023/08/31 04:54:50;;;;;;;;;;;21.30;70.80;;;;;;5051919;28;1025;-67
2023/08/31 04:57:15;;;;;;;;;;;21.30;70.80;;;;;;5051733;28;1906;-67
2023/08/31 04:59:41;;;;;;;;;;;21.30;70.80;;;;;;5050687;28;1349;-68
2023/08/31 05:02:06;;;;;;;;;;;21.30;70.80;;;;;;5052103;28;871;-67
2023/08/31 05:04:32;;;;;;;;;;;21.30;70.80;;;;;;5052342;28;1073;-68
2023/08/31 05:06:57;;;;;;;;;;;21.30;70.80;;;;;;5051856;28;844;-68
2023/08/31 05:09:24;;;;;;;;;;;21.30;70.80;;;;;;5043127;28;1227;-69
2023/08/31 05:11:49;;;;;;;;;;;21.30;70.80;;;;;;5045048;28;835;-68
2023/08/31 05:14:14;;;;;;;;;;;21.30;70.80;;;;;;5051225;28;860;-65
2023/08/31 05:16:40;;;;;;;;;;;21.30;70.80;;;;;;5050623;28;1971;-67
2023/08/31 05:19:05;;;;;;;;;;;21.30;70.80;;;;;;5050475;28;1336;-68
2023/08/31 05:21:31;;;;;;;;;;;21.30;70.80;;;;;;5050889;28;1168;-66
2023/08/31 05:23:56;;;;;;;;;;;21.30;70.80;;;;;;5051660;28;876;-67
2023/08/31 05:26:22;;;;;;;;;;;21.30;70.80;;;;;;5051822;28;899;-67
2023/08/31 05:28:48;;;;;;;;;;;21.30;70.90;;;;;;5051078;28;1273;-66
2023/08/31 05:31:13;;;;;;;;;;;21.30;70.90;;;;;;5052206;28;1274;-67
2023/08/31 05:33:39;;;;;;;;;;;21.30;70.90;;;;;;5051315;28;1019;-67
2023/08/31 05:36:05;;;;;;;;;;;21.30;70.90;;;;;;5051385;28;1906;-67
2023/08/31 05:38:30;;;;;;;;;;;21.30;70.90;;;;;;5050250;28;864;-67
2023/08/31 05:41:06;;;;;;;;;;;21.30;70.90;;;;;;5051233;28;1287;-68
2023/08/31 05:43:32;;;;;;;;;;;21.30;70.90;;;;;;5049893;28;847;-69
2023/08/31 05:45:57;;;;;;;;;;;21.30;70.90;;;;;;5042024;28;1621;-69
2023/08/31 05:48:23;;;;;;;;;;;21.30;70.90;;;;;;5050140;28;931;-68
2023/08/31 05:50:48;;;;;;;;;;;21.30;70.90;;;;;;5050954;28;1337;-68
2023/08/31 05:53:14;;;;;;;;;;;21.30;70.90;;;;;;5049081;28;900;-68
2023/08/31 05:55:39;;;;;;;;;;;21.30;71.00;;;;;;5050690;28;1001;-68
2023/08/31 05:58:05;;;;;;;;;;;21.30;70.90;;;;;;5049798;28;1903;-69
2023/08/31 06:00:30;;;;;;;;;;;21.30;70.90;;;;;;5051198;28;1366;-68
2023/08/31 06:02:56;;;;;;;;;;;21.30;70.90;;;;;;5051446;28;1131;-68
2023/08/31 06:05:21;;;;;;;;;;;21.30;70.90;;;;;;5051406;28;921;-68
2023/08/31 06:07:47;;;;;;;;;;;21.30;70.90;;;;;;5051107;28;854;-68
2023/08/31 06:10:14;;;;;;;;;;;21.30;70.90;;;;;;5044126;28;1256;-68
2023/08/31 06:12:40;;;;;;;;;;;21.30;70.90;;;;;;5051340;28;812;-68
2023/08/31 06:15:06;;;;;;;;;;;21.30;71.00;;;;;;5051432;28;1025;-69
2023/08/31 06:17:31;;;;;;;;;;;21.30;71.00;;;;;;5051355;28;1922;-69
2023/08/31 06:19:57;;;;;;;;;;;21.30;70.90;;;;;;5050232;28;1278;-69
2023/08/31 06:22:24;;;;;;;;;;;21.30;71.00;;;;;;5051158;28;836;-69
2023/08/31 06:24:49;;;;;;;;;;;21.30;71.00;;;;;;5051082;28;887;-69
2023/08/31 06:27:16;;;;;;;;;;;21.30;71.00;;;;;;5043829;28;1282;-69
2023/08/31 06:29:41;;;;;;;;;;;21.30;71.00;;;;;;5049364;28;1254;-69
2023/08/31 06:32:07;;;;;;;;;;;21.30;71.00;;;;;;5049796;28;1875;-69
2023/08/31 06:34:32;;;;;;;;;;;21.30;71.10;;;;;;5050297;28;1347;-69
2023/08/31 06:36:58;;;;;;;;;;;21.30;71.20;;;;;;5050921;28;1929;-69
2023/08/31 06:39:24;;;;;;;;;;;21.30;71.00;;;;;;5050014;28;1267;-69
2023/08/31 06:41:49;;;;;;;;;;;21.30;71.00;;;;;;5050802;28;867;-69
2023/08/31 06:44:15;;;;;;;;;;;21.30;71.00;;;;;;5050796;28;998;-68
2023/08/31 06:46:40;;;;;;;;;;;21.30;71.00;;;;;;5046360;28;1389;-68
2023/08/31 06:49:05;;;;;;;;;;;21.30;71.00;;;;;;5049704;28;842;-69
2023/08/31 06:51:32;;;;;;;;;;;21.30;71.00;;;;;;5050586;28;1257;-70
2023/08/31 06:54:04;;;;;;;;;;;21.30;71.00;;;;;;5050483;28;993;-68
2023/08/31 06:56:30;;;;;;;;;;;21.30;71.00;;;;;;5049424;28;1957;-68
2023/08/31 06:58:55;;;;;;;;;;;21.30;71.10;;;;;;5048734;28;911;-69
2023/08/31 07:01:21;;;;;;;;;;;21.30;71.00;;;;;;5046082;28;1356;-65
2023/08/31 07:03:46;;;;;;;;;;;21.30;71.00;;;;;;5041784;28;1557;-66
2023/08/31 07:06:11;;;;;;;;;;;21.30;71.00;;;;;;5045217;28;836;-67
2023/08/31 07:08:40;;;;;;;;;;;21.30;71.00;;;;;;5049117;28;867;-71
2023/08/31 07:11:06;;;;;;;;;;;21.30;71.00;;;;;;5046489;28;1476;-72
2023/08/31 07:13:31;;;;;;;;;;;21.30;71.00;;;;;;5049524;28;1511;-72
2023/08/31 07:15:57;;;;;;;;;;;21.30;71.10;;;;;;5051308;28;1996;-71
2023/08/31 07:18:22;;;;;;;;;;;21.30;71.00;;;;;;5051447;28;1335;-71
2023/08/31 07:20:48;;;;;;;;;;;21.30;71.00;;;;;;5050002;28;1333;-72
2023/08/31 07:23:13;;;;;;;;;;;21.30;71.00;;;;;;5049374;28;875;-72
2023/08/31 07:25:39;;;;;;;;;;;21.30;71.00;;;;;;5049751;28;1131;-71
2023/08/31 07:28:05;;;;;;;;;;;21.30;71.10;;;;;;5049047;28;1329;-72
2023/08/31 07:30:30;;;;;;;;;;;21.30;71.10;;;;;;5044475;28;1344;-72
2023/08/31 07:32:56;;;;;;;;;;;21.30;71.10;;;;;;5049165;28;1219;-71
2023/08/31 07:35:21;;;;;;;;;;;21.30;71.10;;;;;;5050179;28;812;-71
2023/08/31 07:37:47;;;;;;;;;;;21.30;71.00;;;;;;5049256;28;1906;-71
2023/08/31 07:40:12;;;;;;;;;;;21.30;71.10;;;;;;5049879;28;1269;-71
2023/08/31 07:42:38;;;;;;;;;;;21.30;71.10;;;;;;5044690;28;816;-71
2023/08/31 07:45:05;;;;;;;;;;;21.30;71.10;;;;;;5049893;28;934;-71
2023/08/31 07:47:30;;;;;;;;;;;21.30;71.10;;;;;;5050105;28;898;-71
2023/08/31 07:49:56;;;;;;;;;;;21.30;71.10;;;;;;5049547;28;1258;-71
2023/08/31 07:52:22;;;;;;;;;;;21.30;71.10;;;;;;5049524;28;891;-71
2023/08/31 07:54:48;;;;;;;;;;;21.30;71.80;;;;;;5049903;28;1358;-71
2023/08/31 07:57:13;;;;;;;;;;;21.30;71.10;;;;;;5045837;28;1997;-70
2023/08/31 07:59:40;;;;;;;;;;;21.30;71.10;;;;;;5048273;28;1288;-72
2023/08/31 08:02:06;;;;;;;;;;;21.30;71.10;;;;;;5048787;28;1184;-72
2023/08/31 08:04:31;;;;;;;;;;;21.30;71.10;;;;;;5049186;28;1399;-71
2023/08/31 08:06:57;;;;;;;;;;;21.30;71.10;;;;;;5040164;28;1501;-72
2023/08/31 08:09:22;;;;;;;;;;;21.30;71.20;;;;;;5044103;28;1377;-71
2023/08/31 08:11:49;;;;;;;;;;;21.30;71.10;;;;;;5049089;28;1100;-71
2023/08/31 08:14:15;;;;;;;;;;;21.30;71.10;;;;;;5049658;28;1010;-71
2023/08/31 08:16:41;;;;;;;;;;;21.30;71.10;;;;;;5052446;28;1915;-71
2023/08/31 08:19:07;;;;;;;;;;;21.30;71.10;;;;;;5052392;28;1339;-71
2023/08/31 08:21:33;;;;;;;;;;;21.30;71.10;;;;;;5052847;28;1247;-71
2023/08/31 08:23:58;;;;;;;;;;;21.30;71.10;;;;;;5053391;28;994;-71
2023/08/31 08:26:23;;;;;;;;;;;21.30;71.10;;;;;;5053608;28;855;-71
2023/08/31 08:28:49;;;;;;;;;;;21.30;71.10;;;;;;5052259;28;1337;-71
2023/08/31 08:31:15;;;;;;;;;;;21.30;71.10;;;;;;5048348;28;1268;-71
2023/08/31 08:33:40;;;;;;;;;;;21.30;71.10;;;;;;5053100;28;804;-68
2023/08/31 08:36:06;;;;;;;;;;;21.30;71.10;;;;;;5040025;28;1906;-68
2023/08/31 08:38:31;;;;;;;;;;;21.30;71.10;;;;;;5051825;28;835;-68
2023/08/31 08:40:56;;;;;;;;;;;21.30;71.10;;;;;;5050923;28;2112;-68
2023/08/31 08:43:25;;;;;;;;;;;21.30;71.10;;;;;;5046888;28;1250;-68
2023/08/31 08:45:52;;;;;;;;;;;21.30;71.10;;;;;;5041586;28;1277;-68
2023/08/31 08:48:17;;;;;;;;;;;21.30;71.20;;;;;;5033620;28;1409;-68
2023/08/31 08:50:43;;;;;;;;;;;21.30;71.20;;;;;;5051535;28;1364;-68
2023/08/31 08:53:08;;;;;;;;;;;21.30;71.20;;;;;;5052197;28;1070;-68
2023/08/31 08:55:34;;;;;;;;;;;21.30;71.20;;;;;;5046178;28;1028;-68
2023/08/31 08:58:03;;;;;;;;;;;21.30;71.20;;;;;;5044742;28;1910;-68
2023/08/31 09:00:29;;;;;;;;;;;21.30;71.20;;;;;;5051813;28;1381;-68
2023/08/31 09:02:55;;;;;;;;;;;21.30;71.20;;;;;;5042446;28;977;-68
2023/08/31 09:05:20;;;;;;;;;;;21.30;71.20;;;;;;5052630;28;1589;-68
2023/08/31 09:08:01;;;;;;;;;;;21.30;71.20;;;;;;5046033;28;845;-67
2023/08/31 09:10:37;;;;;;;;;;;21.30;71.20;;;;;;5051115;28;1189;-68
2023/08/31 09:13:04;;;;;;;;;;;21.30;71.20;;;;;;5043476;28;804;-68
2023/08/31 09:15:38;;;;;;;;;;;21.30;71.20;;;;;;5043325;28;812;-68
2023/08/31 09:18:04;;;;;;;;;;;21.30;71.20;;;;;;5040866;28;1922;-68
2023/08/31 09:20:29;;;;;;;;;;;21.30;71.20;;;;;;5046149;28;1477;-68
2023/08/31 09:22:55;;;;;;;;;;;21.30;71.20;;;;;;5051905;28;1649;-68
2023/08/31 09:25:21;;;;;;;;;;;21.30;71.20;;;;;;5041967;28;914;-68
2023/08/31 09:27:47;;;;;;;;;;;21.30;71.20;;;;;;5049304;28;1328;-68
2023/08/31 09:30:13;;;;;;;;;;;21.30;71.20;;;;;;5051007;28;1269;-67
2023/08/31 09:32:38;;;;;;;;;;;21.30;71.20;;;;;;5051740;28;905;-68
2023/08/31 09:35:07;;;;;;;;;;;21.30;71.20;;;;;;5050451;28;888;-67
2023/08/31 09:37:33;;;;;;;;;;;21.30;71.30;;;;;;5048130;28;1961;-68
2023/08/31 09:40:02;;;;;;;;;;;21.30;72.00;;;;;;5050592;28;1335;-68
2023/08/31 09:42:37;;;;;;;;;;;21.30;71.20;;;;;;5051970;28;876;-68
2023/08/31 09:45:03;;;;;;;;;;;21.30;71.20;;;;;;5045099;28;852;-67
2023/08/31 09:47:28;;;;;;;;;;;21.30;71.20;;;;;;5051602;28;871;-69
2023/08/31 09:49:54;;;;;;;;;;;21.30;71.20;;;;;;5033134;28;1228;-68
2023/08/31 09:52:19;;;;;;;;;;;21.30;71.20;;;;;;5051621;28;942;-67
2023/08/31 09:54:45;;;;;;;;;;;21.30;71.20;;;;;;5043578;28;1019;-68
2023/08/31 09:57:10;;;;;;;;;;;21.30;72.00;;;;;;5041983;28;1906;-68
2023/08/31 09:59:36;;;;;;;;;;;21.30;71.20;;;;;;5041882;28;1199;-68
2023/08/31 10:02:02;;;;;;;;;;;21.30;71.30;;;;;;5044639;28;1304;-68
2023/08/31 10:04:29;;;;;;;;;;;21.30;71.20;;;;;;5046946;28;906;-68
2023/08/31 10:06:54;;;;;;;;;;;21.30;71.20;;;;;;5051172;28;933;-68
2023/08/31 10:09:20;;;;;;;;;;;21.30;71.20;;;;;;5044401;28;891;-67
2023/08/31 10:11:45;;;;;;;;;;;21.30;71.20;;;;;;5051240;28;844;-68
2023/08/31 10:14:11;;;;;;;;;;;21.30;71.20;;;;;;5044152;28;853;-68
2023/08/31 10:16:39;;;;;;;;;;;21.30;71.20;;;;;;5051056;28;1918;-68
2023/08/31 10:19:04;;;;;;;;;;;21.30;71.20;;;;;;5050361;28;1424;-67
2023/08/31 10:21:29;;;;;;;;;;;21.30;71.20;;;;;;5051283;28;1361;-67
2023/08/31 10:23:55;;;;;;;;;;;21.30;71.20;;;;;;5051041;28;1222;-67
2023/08/31 10:26:23;;;;;;;;;;;21.30;71.20;;;;;;5050951;28;994;-67
2023/08/31 10:28:49;;;;;;;;;;;21.30;71.20;;;;;;5050283;28;1259;-67
2023/08/31 10:31:18;;;;;;;;;;;21.30;71.30;;;;;;5051028;28;1366;-67
2023/08/31 10:33:47;;;;;;;;;;;21.30;71.30;;;;;;5045658;28;891;-67
2023/08/31 10:36:16;;;;;;;;;;;21.30;71.20;;;;;;5044566;28;1902;-67
2023/08/31 10:38:42;;;;;;;;;;;21.30;71.30;;;;;;5040717;28;804;-68
2023/08/31 10:41:07;;;;;;;;;;;21.30;71.30;;;;;;5043662;28;1988;-68
2023/08/31 10:43:45;;;;;;;;;;;21.30;71.30;;;;;;5049963;28;1453;-67
2023/08/31 10:46:28;;;;;;;;;;;21.30;71.30;;;;;;5042143;28;1556;-67
2023/08/31 10:48:54;;;;;;;;;;;21.30;71.30;;;;;;5045852;28;1245;-68
2023/08/31 10:51:23;;;;;;;;;;;21.30;71.30;;;;;;5044238;28;1393;-68
2023/08/31 10:53:49;;;;;;;;;;;21.30;71.30;;;;;;5050415;28;816;-67
2023/08/31 10:56:18;;;;;;;;;;;21.30;71.30;;;;;;5045583;28;1902;-67
2023/08/31 10:58:54;;;;;;;;;;;21.30;71.30;;;;;;5042365;28;903;-67
2023/08/31 11:01:40;;;;;;;;;;;21.30;71.30;;;;;;5050143;28;1379;-68
2023/08/31 11:04:10;;;;;;;;;;;21.30;71.30;;;;;;5050142;28;1194;-67
2023/08/31 11:06:35;;;;;;;;;;;21.30;71.20;;;;;;5050054;28;832;-67
2023/08/31 11:09:01;;;;;;;;;;;21.30;71.20;;;;;;5048560;28;851;-68
2023/08/31 11:11:26;;;;;;;;;;;21.30;71.30;;;;;;5050277;28;1251;-68
2023/08/31 11:13:56;;;;;;;;;;;21.30;71.20;;;;;;5050099;28;847;-68
2023/08/31 11:16:21;;;;;;;;;;;21.30;71.20;;;;;;5048862;28;1910;-68
2023/08/31 11:18:47;;;;;;;;;;;21.30;71.30;;;;;;5043507;28;1353;-67
2023/08/31 11:21:13;;;;;;;;;;;21.30;71.30;;;;;;5050037;28;1332;-67
2023/08/31 11:23:38;;;;;;;;;;;21.30;71.30;;;;;;5049470;28;832;-68
2023/08/31 11:26:04;;;;;;;;;;;21.30;71.30;;;;;;5049902;28;879;-67
2023/08/31 11:28:32;;;;;;;;;;;21.30;71.30;;;;;;5048400;28;1288;-67
2023/08/31 11:30:58;;;;;;;;;;;21.30;71.30;;;;;;5048476;28;1296;-67
2023/08/31 11:33:23;;;;;;;;;;;21.30;71.30;;;;;;5049328;28;972;-67
2023/08/31 11:35:49;;;;;;;;;;;21.30;71.30;;;;;;5049696;28;1014;-67
2023/08/31 11:38:15;;;;;;;;;;;21.30;71.30;;;;;;5039906;28;1974;-68
2023/08/31 11:40:40;;;;;;;;;;;21.30;71.30;;;;;;5042761;28;1386;-69
2023/08/31 11:43:09;;;;;;;;;;;21.30;71.30;;;;;;5042265;28;896;-68
2023/08/31 11:45:34;;;;;;;;;;;21.30;71.30;;;;;;5049618;28;808;-68
2023/08/31 11:48:00;;;;;;;;;;;21.30;71.30;;;;;;5049130;28;1081;-67
2023/08/31 11:50:25;;;;;;;;;;;21.30;71.30;;;;;;5045878;28;1279;-68
2023/08/31 11:52:53;;;;;;;;;;;21.30;71.30;;;;;;5046534;28;939;-68
2023/08/31 11:55:18;;;;;;;;;;;21.30;71.30;;;;;;5045833;28;1257;-68
2023/08/31 11:57:50;;;;;;;;;;;21.30;71.40;;;;;;5053891;28;1902;-68
2023/08/31 12:00:20;;;;;;;;;;;21.30;71.40;;;;;;5053258;28;1405;-67
2023/08/31 12:02:48;;;;;;;;;;;21.30;71.30;;;;;;5044821;28;800;-68
2023/08/31 12:05:14;;;;;;;;;;;21.30;71.30;;;;;;5053977;28;824;-67
2023/08/31 12:07:40;;;;;;;;;;;21.30;71.40;;;;;;5053569;28;922;-67
2023/08/31 12:10:06;;;;;;;;;;;21.30;71.40;;;;;;5052996;28;1352;-68
2023/08/31 12:12:36;;;;;;;;;;;21.30;71.30;;;;;;5050731;28;921;-68
2023/08/31 12:15:03;;;;;;;;;;;21.30;71.30;;;;;;5053495;28;865;-68
2023/08/31 12:17:30;;;;;;;;;;;21.30;71.40;;;;;;5048194;28;1910;-68
2023/08/31 12:20:04;;;;;;;;;;;21.30;71.40;;;;;;5052165;28;1340;-69
2023/08/31 12:22:29;;;;;;;;;;;21.30;71.40;;;;;;5051804;28;999;-68
2023/08/31 12:24:54;;;;;;;;;;;21.30;71.40;;;;;;5051430;28;817;-68
2023/08/31 12:27:21;;;;;;;;;;;21.30;71.40;;;;;;5053461;28;1243;-68
2023/08/31 12:29:46;;;;;;;;;;;21.30;71.40;;;;;;5052469;28;1247;-67
2023/08/31 12:32:12;;;;;;;;;;;21.30;71.40;;;;;;5053405;28;831;-66
2023/08/31 12:34:37;;;;;;;;;;;21.30;71.40;;;;;;5042850;28;1684;-69
2023/08/31 12:37:04;;;;;;;;;;;21.30;71.40;;;;;;5052140;28;1902;-66
2023/08/31 12:39:29;;;;;;;;;;;21.30;71.40;;;;;;5051929;28;1343;-65
2023/08/31 12:41:56;;;;;;;;;;;21.30;71.40;;;;;;5051801;28;1340;-66
2023/08/31 12:44:21;;;;;;;;;;;21.30;71.40;;;;;;5043234;28;1516;-67
2023/08/31 12:46:47;;;;;;;;;;;21.30;71.40;;;;;;5051407;28;1835;-68
2023/08/31 12:49:12;;;;;;;;;;;21.30;71.50;;;;;;5050319;28;1907;-66
2023/08/31 12:51:38;;;;;;;;;;;21.30;71.40;;;;;;5049933;28;1610;-66
2023/08/31 12:54:03;;;;;;;;;;;21.30;71.40;;;;;;5051688;28;1615;-69
2023/08/31 12:56:29;;;;;;;;;;;21.30;71.40;;;;;;5050528;28;1898;-69
2023/08/31 12:58:54;;;;;;;;;;;21.30;71.40;;;;;;5050932;28;1421;-68
2023/08/31 13:01:20;;;;;;;;;;;21.30;71.50;;;;;;5050724;28;1255;-66
2023/08/31 13:03:47;;;;;;;;;;;21.30;71.40;;;;;;5045402;28;871;-67
2023/08/31 13:06:13;;;;;;;;;;;21.30;71.40;;;;;;5051502;28;832;-68
2023/08/31 13:08:38;;;;;;;;;;;21.30;71.40;;;;;;5045277;28;998;-67
2023/08/31 13:11:04;;;;;;;;;;;21.30;71.40;;;;;;5051456;28;1355;-67
2023/08/31 13:13:31;;;;;;;;;;;21.30;71.40;;;;;;5051101;28;888;-68
2023/08/31 13:15:57;;;;;;;;;;;21.30;71.50;;;;;;5051924;28;1223;-67
2023/08/31 13:18:22;;;;;;;;;;;21.30;71.40;;;;;;5050870;28;1988;-67
2023/08/31 13:20:48;;;;;;;;;;;21.30;71.50;;;;;;5046363;28;1348;-67
2023/08/31 13:23:14;;;;;;;;;;;21.30;71.40;;;;;;5039844;28;1590;-67
2023/08/31 13:25:39;;;;;;;;;;;21.30;71.40;;;;;;5051260;28;1034;-70
2023/08/31 13:28:05;;;;;;;;;;;21.30;71.50;;;;;;5050584;28;1367;-71
2023/08/31 13:30:30;;;;;;;;;;;21.30;71.50;;;;;;5051867;28;1347;-69
2023/08/31 13:32:56;;;;;;;;;;;21.30;71.50;;;;;;5051254;28;813;-72
2023/08/31 13:35:21;;;;;;;;;;;21.30;71.50;;;;;;5047024;28;823;-68
2023/08/31 13:37:47;;;;;;;;;;;21.30;71.40;;;;;;5050992;28;1905;-69
2023/08/31 13:40:12;;;;;;;;;;;21.30;71.50;;;;;;5051477;28;1770;-66
2023/08/31 13:42:38;;;;;;;;;;;21.30;71.50;;;;;;5051699;28;868;-69
2023/08/31 13:45:05;;;;;;;;;;;21.30;71.50;;;;;;5044805;28;2157;-68
2023/08/31 13:47:30;;;;;;;;;;;21.30;71.50;;;;;;5051352;28;1293;-68
2023/08/31 13:49:56;;;;;;;;;;;21.30;71.40;;;;;;5050322;28;1369;-67
2023/08/31 13:52:22;;;;;;;;;;;21.30;71.50;;;;;;5051697;28;1068;-67
2023/08/31 13:54:47;;;;;;;;;;;21.30;71.50;;;;;;5051145;28;1296;-67
2023/08/31 13:57:17;;;;;;;;;;;21.30;71.50;;;;;;5051373;28;1902;-67
2023/08/31 13:59:43;;;;;;;;;;;21.30;71.50;;;;;;5045264;28;1268;-68
2023/08/31 14:02:08;;;;;;;;;;;21.30;71.50;;;;;;5046031;28;971;-68
2023/08/31 14:04:34;;;;;;;;;;;21.30;71.50;;;;;;5051382;28;967;-69
2023/08/31 14:07:00;;;;;;;;;;;21.30;71.60;;;;;;5051394;28;831;-68
2023/08/31 14:09:27;;;;;;;;;;;21.30;71.50;;;;;;5050023;28;1272;-68
2023/08/31 14:11:54;;;;;;;;;;;21.30;71.50;;;;;;5043168;28;942;-68
2023/08/31 14:14:19;;;;;;;;;;;21.30;71.50;;;;;;5050755;28;918;-68
2023/08/31 14:16:45;;;;;;;;;;;21.30;71.50;;;;;;5051372;28;1914;-69
2023/08/31 14:19:11;;;;;;;;;;;21.30;71.50;;;;;;5050681;28;1216;-69
2023/08/31 14:21:36;;;;;;;;;;;21.30;71.50;;;;;;5051022;28;1296;-68
2023/08/31 14:24:02;;;;;;;;;;;21.30;71.50;;;;;;5056721;28;964;-69
2023/08/31 14:26:29;;;;;;;;;;;21.30;71.50;;;;;;5051256;28;863;-69
2023/08/31 14:28:55;;;;;;;;;;;21.30;71.50;;;;;;5038115;28;1282;-69
2023/08/31 14:31:21;;;;;;;;;;;21.30;71.50;;;;;;5047030;28;1311;-69